createdAt,value
2023-11-30T00:00:47.087Z,16.52
2023-11-30T00:03:13.574Z,17.88
2023-11-30T00:05:40.037Z,16.60
2023-11-30T00:08:06.463Z,15.50
2023-11-30T00:10:32.901Z,20.45
2023-11-30T00:12:59.400Z,16.98
2023-11-30T00:15:25.879Z,17.00
2023-11-30T00:17:52.670Z,15.48
2023-11-30T00:20:19.087Z,15.55
2023-11-30T00:22:47.199Z,21.67
2023-11-30T00:25:13.673Z,18.80
2023-11-30T00:27:40.115Z,14.90
2023-11-30T00:30:07.732Z,19.63
2023-11-30T00:32:34.379Z,17.42
2023-11-30T00:35:00.757Z,17.73
2023-11-30T00:37:27.184Z,15.32
2023-11-30T00:39:53.563Z,19.42
2023-11-30T00:42:20.936Z,20.67
2023-11-30T00:44:47.432Z,17.42
2023-11-30T00:47:13.918Z,16.95
2023-11-30T00:49:40.314Z,19.33
2023-11-30T00:52:06.716Z,19.60
2023-11-30T00:54:33.198Z,17.75
2023-11-30T00:56:59.752Z,20.05
2023-11-30T00:59:26.195Z,19.08
2023-11-30T01:01:52.698Z,20.98
2023-11-30T01:04:19.184Z,18.15
2023-11-30T01:06:45.636Z,21.10
2023-11-30T01:09:12.466Z,20.77
2023-11-30T01:11:43.415Z,23.05
2023-11-30T01:14:09.952Z,19.38
2023-11-30T01:16:36.443Z,23.08
2023-11-30T01:19:03.210Z,19.65
2023-11-30T01:21:29.713Z,22.35
2023-11-30T01:23:56.399Z,22.35
2023-11-30T01:26:23.521Z,25.92
2023-11-30T01:28:49.904Z,22.60
2023-11-30T01:31:16.357Z,21.02
2023-11-30T01:33:42.864Z,20.88
2023-11-30T01:36:09.669Z,20.95
2023-11-30T01:38:36.240Z,23.27
2023-11-30T01:41:02.645Z,22.30
2023-11-30T01:43:29.024Z,24.75
2023-11-30T01:46:02.306Z,19.85
2023-11-30T01:48:30.565Z,22.98
2023-11-30T01:50:57.149Z,19.63
2023-11-30T01:53:23.650Z,22.05
2023-11-30T01:55:50.073Z,23.88
2023-11-30T01:58:16.533Z,22.48
2023-11-30T02:00:43.054Z,26.25
2023-11-30T02:03:09.595Z,20.45
2023-11-30T02:05:36.337Z,23.83
2023-11-30T02:08:02.957Z,25.45
2023-11-30T02:10:29.541Z,25.83
2023-11-30T02:12:56.031Z,27.00
2023-11-30T02:15:22.531Z,23.08
2023-11-30T02:17:49.041Z,22.23
2023-11-30T02:20:15.630Z,26.55
2023-11-30T02:22:42.012Z,26.05
2023-11-30T02:25:09.109Z,26.17
2023-11-30T02:27:35.582Z,24.67
2023-11-30T02:30:02.079Z,27.95
2023-11-30T02:32:28.515Z,27.48
2023-11-30T02:34:54.957Z,37.53
2023-11-30T02:37:21.363Z,27.60
2023-11-30T02:39:47.809Z,26.40
2023-11-30T02:42:14.548Z,30.45
2023-11-30T02:44:40.946Z,27.17
2023-11-30T02:47:07.348Z,23.42
2023-11-30T02:49:33.787Z,22.10
2023-11-30T02:52:01.034Z,25.27
2023-11-30T02:54:27.495Z,24.35
2023-11-30T02:56:53.959Z,28.60
2023-11-30T02:59:20.353Z,24.77
2023-11-30T03:01:47.378Z,27.30
2023-11-30T03:04:13.914Z,23.52
2023-11-30T03:06:40.842Z,19.73
2023-11-30T03:09:08.353Z,21.30
2023-11-30T03:11:35.099Z,23.90
2023-11-30T03:14:01.694Z,22.90
2023-11-30T03:16:28.672Z,22.42
2023-11-30T03:19:09.977Z,22.05
2023-11-30T03:21:41.640Z,21.65
2023-11-30T03:24:09.492Z,21.33
2023-11-30T03:26:36.095Z,23.55
2023-11-30T03:29:02.505Z,25.67
2023-11-30T03:31:29.035Z,25.38
2023-11-30T03:33:55.425Z,23.60
2023-11-30T03:36:21.942Z,25.70
2023-11-30T03:38:54.552Z,22.83
2023-11-30T03:41:21.791Z,22.25
2023-11-30T03:43:49.064Z,21.85
2023-11-30T03:46:16.004Z,31.10
2023-11-30T03:48:42.472Z,24.77
2023-11-30T03:51:08.983Z,24.38
2023-11-30T03:53:35.588Z,24.30
2023-11-30T03:56:02.023Z,20.90
2023-11-30T03:58:28.424Z,26.70
2023-11-30T04:00:54.977Z,26.17
2023-11-30T04:03:21.405Z,30.00
2023-11-30T04:05:47.808Z,27.83
2023-11-30T04:08:14.232Z,24.17
2023-11-30T04:10:40.622Z,23.35
2023-11-30T04:13:07.033Z,23.15
2023-11-30T04:15:33.429Z,21.08
2023-11-30T04:18:00.750Z,26.00
2023-11-30T04:20:27.197Z,22.77
2023-11-30T04:22:53.649Z,27.33
2023-11-30T04:25:20.055Z,23.90
2023-11-30T04:27:46.503Z,26.50
2023-11-30T04:30:13.091Z,29.83
2023-11-30T04:32:39.592Z,24.23
2023-11-30T04:35:06.585Z,29.85
2023-11-30T04:37:33.026Z,23.95
2023-11-30T04:39:59.458Z,22.65
2023-11-30T04:42:25.858Z,27.40
2023-11-30T04:44:52.309Z,29.58
2023-11-30T04:47:18.776Z,30.55
2023-11-30T04:49:45.210Z,26.20
2023-11-30T04:52:11.649Z,25.77
2023-11-30T04:54:39.370Z,27.45
2023-11-30T04:57:06.044Z,31.90
2023-11-30T04:59:32.526Z,28.75
2023-11-30T05:01:59.048Z,31.38
2023-11-30T05:04:25.581Z,26.60
2023-11-30T05:06:52.053Z,30.40
2023-11-30T05:09:18.547Z,38.38
2023-11-30T05:11:45.005Z,34.20
2023-11-30T05:14:11.432Z,30.63
2023-11-30T05:16:37.818Z,31.40
2023-11-30T05:19:04.200Z,27.77
2023-11-30T05:21:30.655Z,34.45
2023-11-30T05:23:57.167Z,32.50
2023-11-30T05:26:23.583Z,44.88
2023-11-30T05:28:50.060Z,37.05
2023-11-30T05:31:16.543Z,33.00
2023-11-30T05:33:43.032Z,33.78
2023-11-30T05:36:09.826Z,40.50
2023-11-30T05:38:36.247Z,30.88
2023-11-30T05:41:02.700Z,29.75
2023-11-30T05:43:29.329Z,37.90
2023-11-30T05:45:55.747Z,33.22
2023-11-30T05:48:23.430Z,33.28
2023-11-30T05:50:50.084Z,29.90
2023-11-30T05:53:16.485Z,36.10
2023-11-30T05:55:42.890Z,33.47
2023-11-30T05:58:09.286Z,30.55
2023-11-30T06:00:35.717Z,25.58
2023-11-30T06:03:03.262Z,30.90
2023-11-30T06:05:30.609Z,27.95
2023-11-30T06:07:56.995Z,28.90
2023-11-30T06:10:23.430Z,28.17
2023-11-30T06:12:49.926Z,32.88
2023-11-30T06:15:16.602Z,29.38
2023-11-30T06:17:43.069Z,33.15
2023-11-30T06:20:13.415Z,27.52
2023-11-30T06:22:40.535Z,30.50
2023-11-30T06:25:07.230Z,30.55
2023-11-30T06:27:33.701Z,31.25
2023-11-30T06:30:00.611Z,30.35
2023-11-30T06:32:27.016Z,31.60
2023-11-30T06:34:53.451Z,35.63
2023-11-30T06:37:19.930Z,31.33
2023-11-30T06:39:46.324Z,30.17
2023-11-30T06:42:12.786Z,36.25
2023-11-30T06:44:43.215Z,36.15
2023-11-30T06:47:09.624Z,32.47
2023-11-30T06:49:36.112Z,30.63
2023-11-30T06:52:05.068Z,34.30
2023-11-30T06:54:32.302Z,29.23
2023-11-30T06:56:58.809Z,37.78
2023-11-30T06:59:25.266Z,27.25
2023-11-30T07:01:51.745Z,29.65
2023-11-30T07:04:18.502Z,36.80
2023-11-30T07:06:45.052Z,31.33
2023-11-30T07:09:13.617Z,28.20
2023-11-30T07:11:40.580Z,36.17
2023-11-30T07:14:07.405Z,34.13
2023-11-30T07:16:33.843Z,35.15
2023-11-30T07:19:00.317Z,34.60
2023-11-30T07:21:29.440Z,39.75
2023-11-30T07:23:55.872Z,30.45
2023-11-30T07:26:22.373Z,29.30
2023-11-30T07:28:48.778Z,34.83
2023-11-30T07:31:19.393Z,33.08
2023-11-30T07:33:46.133Z,31.80
2023-11-30T07:36:14.240Z,35.45
2023-11-30T07:38:41.097Z,35.72
2023-11-30T07:41:07.936Z,35.42
2023-11-30T07:43:34.412Z,31.00
2023-11-30T07:46:00.918Z,29.92
2023-11-30T07:48:28.842Z,29.83
2023-11-30T07:50:55.354Z,35.58
2023-11-30T07:53:24.352Z,33.20
2023-11-30T07:55:55.489Z,32.88
2023-11-30T07:58:23.127Z,29.92
2023-11-30T08:00:49.640Z,28.95
2023-11-30T08:03:16.211Z,34.67
2023-11-30T08:05:44.850Z,40.03
2023-11-30T08:08:11.969Z,31.88
2023-11-30T08:10:38.401Z,41.70
2023-11-30T08:13:04.806Z,34.92
2023-11-30T08:15:31.303Z,27.85
2023-11-30T08:17:57.776Z,35.88
2023-11-30T08:20:24.248Z,28.95
2023-11-30T08:22:50.737Z,34.75
2023-11-30T08:25:17.185Z,34.22
2023-11-30T08:27:48.210Z,32.58
2023-11-30T08:30:16.737Z,32.28
2023-11-30T08:32:43.223Z,36.42
2023-11-30T08:35:09.610Z,33.35
2023-11-30T08:37:36.072Z,36.38
2023-11-30T08:40:02.494Z,40.30
2023-11-30T08:42:28.966Z,36.42
2023-11-30T08:44:55.418Z,29.20
2023-11-30T08:47:24.543Z,35.03
2023-11-30T08:49:51.051Z,67.75
2023-11-30T08:52:17.472Z,39.72
2023-11-30T08:54:44.901Z,27.63
2023-11-30T08:57:13.690Z,25.55
2023-11-30T08:59:40.919Z,26.73
2023-11-30T09:02:07.477Z,29.75
2023-11-30T09:04:34.128Z,29.23
2023-11-30T09:07:00.872Z,28.85
2023-11-30T09:09:29.325Z,29.63
2023-11-30T09:11:55.817Z,25.77
2023-11-30T09:14:22.268Z,25.70
2023-11-30T09:16:48.664Z,29.73
2023-11-30T09:19:15.100Z,26.08
2023-11-30T09:21:41.570Z,28.35
2023-11-30T09:24:08.175Z,25.13
2023-11-30T09:26:35.102Z,28.15
2023-11-30T09:29:01.756Z,27.10
2023-11-30T09:31:28.554Z,29.25
2023-11-30T09:33:55.367Z,28.70
2023-11-30T09:36:21.870Z,27.65
2023-11-30T09:38:48.277Z,22.80
2023-11-30T09:41:16.944Z,26.98
2023-11-30T09:43:46.569Z,26.33
2023-11-30T09:46:13.655Z,20.65
2023-11-30T09:48:40.363Z,22.38
2023-11-30T09:51:07.638Z,24.92
2023-11-30T09:53:34.074Z,30.88
2023-11-30T09:56:00.527Z,33.10
2023-11-30T09:58:27.007Z,24.65
2023-11-30T10:00:53.507Z,29.63
2023-11-30T10:03:21.091Z,28.20
2023-11-30T10:05:47.735Z,27.48
2023-11-30T10:08:14.253Z,28.60
2023-11-30T10:10:40.732Z,23.33
2023-11-30T10:13:07.189Z,31.60
2023-11-30T10:15:33.596Z,28.83
2023-11-30T10:18:00.246Z,23.73
2023-11-30T10:20:27.038Z,27.67
2023-11-30T10:22:53.609Z,24.40
2023-11-30T10:25:20.680Z,22.45
2023-11-30T10:27:48.765Z,22.38
2023-11-30T10:30:15.886Z,25.85
2023-11-30T10:32:43.306Z,28.92
2023-11-30T10:35:13.616Z,23.38
2023-11-30T10:37:45.042Z,22.10
2023-11-30T10:40:12.845Z,21.58
2023-11-30T10:42:41.619Z,23.63
2023-11-30T10:45:09.045Z,24.58
2023-11-30T10:47:35.902Z,21.45
2023-11-30T10:50:02.450Z,24.92
2023-11-30T10:52:29.564Z,23.02
2023-11-30T10:55:15.202Z,21.05
2023-11-30T10:57:43.190Z,26.55
2023-11-30T11:00:13.906Z,23.65
2023-11-30T11:02:50.542Z,23.58
2023-11-30T11:05:19.952Z,26.35
2023-11-30T11:07:47.347Z,14.40
2023-11-30T11:10:23.248Z,18.40
2023-11-30T11:12:50.610Z,20.33
2023-11-30T11:15:20.048Z,16.98
2023-11-30T11:17:50.784Z,13.73
2023-11-30T11:20:26.367Z,15.77
2023-11-30T11:22:56.966Z,17.08
2023-11-30T11:25:23.611Z,15.20
2023-11-30T11:27:50.140Z,17.63
2023-11-30T11:30:16.782Z,13.68
2023-11-30T11:32:44.375Z,11.75
2023-11-30T11:35:13.849Z,11.52
2023-11-30T11:37:40.317Z,11.90
2023-11-30T11:40:07.009Z,11.35
2023-11-30T11:42:33.801Z,10.93
2023-11-30T11:45:01.302Z,13.50
2023-11-30T11:47:27.943Z,9.05
2023-11-30T11:49:54.418Z,11.30
2023-11-30T11:52:21.362Z,11.48
2023-11-30T11:54:58.527Z,11.02
2023-11-30T11:57:31.438Z,9.48
2023-11-30T11:59:59.401Z,13.05
2023-11-30T12:02:25.830Z,9.80
2023-11-30T12:04:52.309Z,10.73
2023-11-30T12:07:18.821Z,10.55
2023-11-30T12:09:55.924Z,10.02
2023-11-30T12:12:30.160Z,8.82
2023-11-30T12:14:56.579Z,12.85
2023-11-30T12:17:23.010Z,12.30
2023-11-30T12:19:49.444Z,11.02
2023-11-30T12:22:15.897Z,13.80
2023-11-30T12:24:42.804Z,12.00
2023-11-30T12:27:09.211Z,11.57
2023-11-30T12:29:36.365Z,15.45
2023-11-30T12:32:02.883Z,17.17
2023-11-30T12:34:29.299Z,18.95
2023-11-30T12:36:55.836Z,15.82
2023-11-30T12:39:22.380Z,16.48
2023-11-30T12:41:48.789Z,18.02
2023-11-30T12:44:17.242Z,16.45
2023-11-30T12:46:45.012Z,21.48
2023-11-30T12:49:11.671Z,22.63
2023-11-30T12:51:38.216Z,18.35
2023-11-30T12:54:04.693Z,23.35
2023-11-30T12:56:31.389Z,20.75
2023-11-30T12:58:57.893Z,21.98
2023-11-30T13:01:24.807Z,24.98
2023-11-30T13:03:51.373Z,23.85
2023-11-30T13:06:18.057Z,22.50
2023-11-30T13:08:44.645Z,23.98
2023-11-30T13:11:11.096Z,22.02
2023-11-30T13:13:42.155Z,25.17
2023-11-30T13:16:11.920Z,23.60
2023-11-30T13:18:38.562Z,28.05
2023-11-30T13:21:06.170Z,30.05
2023-11-30T13:23:32.706Z,24.45
2023-11-30T13:25:59.114Z,23.65
2023-11-30T13:28:28.520Z,24.95
2023-11-30T13:30:58.881Z,21.77
2023-11-30T13:33:25.378Z,29.50
2023-11-30T13:35:52.832Z,18.08
2023-11-30T13:38:19.319Z,19.67
2023-11-30T13:40:46.724Z,20.02
2023-11-30T13:43:13.195Z,16.05
2023-11-30T13:45:39.751Z,17.92
2023-11-30T13:48:07.109Z,18.83
2023-11-30T13:50:42.061Z,18.05
2023-11-30T13:53:16.916Z,22.20
2023-11-30T13:55:43.342Z,21.52
2023-11-30T13:58:10.328Z,21.73
2023-11-30T14:00:37.325Z,21.20
2023-11-30T14:03:04.221Z,20.27
2023-11-30T14:05:30.714Z,23.50
2023-11-30T14:07:57.377Z,18.00
2023-11-30T14:10:24.468Z,16.30
2023-11-30T14:12:51.131Z,17.70
2023-11-30T14:15:17.693Z,21.35
2023-11-30T14:17:44.241Z,21.90
2023-11-30T14:20:10.901Z,15.70
2023-11-30T14:22:37.559Z,17.92
2023-11-30T14:25:04.676Z,21.55
2023-11-30T14:27:31.199Z,19.42
2023-11-30T14:29:57.692Z,16.35
2023-11-30T14:32:24.386Z,22.60
2023-11-30T14:34:50.879Z,22.58
2023-11-30T14:37:21.282Z,23.02
2023-11-30T14:39:47.908Z,22.05
2023-11-30T14:42:14.468Z,24.05
2023-11-30T14:44:42.092Z,24.58
2023-11-30T14:47:10.716Z,28.67
2023-11-30T14:49:40.576Z,22.70
2023-11-30T14:52:07.853Z,25.50
2023-11-30T14:54:34.610Z,34.40
2023-11-30T14:57:03.156Z,27.20
2023-11-30T14:59:30.994Z,31.60
2023-11-30T15:01:58.278Z,29.23
2023-11-30T15:04:24.876Z,24.13
2023-11-30T15:06:51.504Z,27.95
2023-11-30T15:09:18.099Z,28.92
2023-11-30T15:11:44.651Z,32.03
2023-11-30T15:14:11.224Z,31.17
2023-11-30T15:16:39.085Z,27.02
2023-11-30T15:19:06.240Z,27.27
2023-11-30T15:21:32.778Z,26.20
2023-11-30T15:23:59.215Z,31.45
2023-11-30T15:26:25.660Z,29.25
2023-11-30T15:28:56.075Z,32.58
2023-11-30T15:31:23.357Z,30.45
2023-11-30T15:33:50.138Z,27.73
2023-11-30T15:36:16.669Z,23.52
2023-11-30T15:38:43.312Z,28.52
2023-11-30T15:41:10.172Z,31.58
2023-11-30T15:43:36.609Z,28.05
2023-11-30T15:46:04.003Z,25.58
2023-11-30T15:48:30.883Z,26.60
2023-11-30T15:50:57.865Z,31.15
2023-11-30T15:53:24.268Z,29.92
2023-11-30T15:55:51.962Z,26.98
2023-11-30T15:58:18.483Z,31.77
2023-11-30T16:00:45.420Z,33.97
2023-11-30T16:03:13.101Z,30.27
2023-11-30T16:05:39.896Z,33.75
2023-11-30T16:08:06.326Z,30.80
2023-11-30T16:10:32.917Z,37.42
2023-11-30T16:12:59.367Z,33.05
2023-11-30T16:15:26.041Z,34.13
2023-11-30T16:17:53.821Z,42.13
2023-11-30T16:20:20.402Z,31.15
2023-11-30T16:22:46.895Z,40.15
2023-11-30T16:25:14.054Z,35.28
2023-11-30T16:27:43.322Z,29.17
2023-11-30T16:30:10.273Z,34.75
2023-11-30T16:32:36.827Z,33.15
2023-11-30T16:35:05.748Z,30.10
2023-11-30T16:37:32.398Z,29.02
2023-11-30T16:39:58.976Z,28.45
2023-11-30T16:42:25.481Z,32.30
2023-11-30T16:44:51.972Z,26.88
2023-11-30T16:47:18.469Z,23.48
2023-11-30T16:49:45.026Z,27.05
2023-11-30T16:52:11.685Z,29.90
2023-11-30T16:54:39.304Z,27.02
2023-11-30T16:57:05.833Z,35.50
2023-11-30T16:59:32.485Z,30.80
2023-11-30T17:01:59.134Z,24.23
2023-11-30T17:04:26.052Z,24.50
2023-11-30T17:06:52.720Z,25.98
2023-11-30T17:09:19.403Z,30.15
2023-11-30T17:11:46.021Z,33.85
2023-11-30T17:14:12.447Z,30.30
2023-11-30T17:16:39.822Z,36.40
2023-11-30T17:19:06.777Z,36.63
2023-11-30T17:21:33.292Z,35.67
2023-11-30T17:23:59.782Z,40.78
2023-11-30T17:26:26.262Z,40.80
2023-11-30T17:28:53.317Z,39.58
2023-11-30T17:31:19.885Z,41.17
2023-11-30T17:33:47.817Z,34.70
2023-11-30T17:36:15.061Z,39.80
2023-11-30T17:38:41.602Z,33.33
2023-11-30T17:41:09.507Z,34.17
2023-11-30T17:43:36.215Z,37.08
2023-11-30T17:46:03.953Z,33.80
2023-11-30T17:48:30.533Z,33.47
2023-11-30T17:50:57.116Z,39.13
2023-11-30T17:53:23.626Z,33.03
2023-11-30T17:55:50.193Z,31.67
2023-11-30T17:58:16.654Z,25.58
2023-11-30T18:00:43.083Z,29.33
2023-11-30T18:03:09.674Z,31.60
2023-11-30T18:05:36.128Z,33.25
2023-11-30T18:08:02.526Z,26.83
2023-11-30T18:10:29.098Z,33.13
2023-11-30T18:12:55.628Z,32.63
2023-11-30T18:15:22.111Z,28.92
2023-11-30T18:17:48.648Z,31.00
2023-11-30T18:20:15.195Z,24.75
2023-11-30T18:22:41.669Z,27.35
2023-11-30T18:25:08.354Z,32.00
2023-11-30T18:27:34.752Z,29.38
2023-11-30T18:30:01.193Z,26.83
2023-11-30T18:32:27.724Z,26.10
2023-11-30T18:34:55.696Z,32.85
2023-11-30T18:37:22.180Z,30.92
2023-11-30T18:39:48.591Z,27.75
2023-11-30T18:42:15.147Z,33.63
2023-11-30T18:44:41.612Z,32.67
2023-11-30T18:47:08.087Z,28.73
2023-11-30T18:49:34.541Z,33.58
2023-11-30T18:52:01.095Z,31.98
2023-11-30T18:54:27.669Z,34.83
2023-11-30T18:56:54.131Z,31.58
2023-11-30T18:59:20.796Z,34.53
2023-11-30T19:01:48.012Z,30.27
2023-11-30T19:04:14.755Z,29.23
2023-11-30T19:06:41.321Z,36.72
2023-11-30T19:09:08.269Z,35.05
2023-11-30T19:11:34.834Z,33.47
2023-11-30T19:14:01.449Z,38.55
2023-11-30T19:16:27.952Z,40.90
2023-11-30T19:18:54.715Z,37.20
2023-11-30T19:21:21.268Z,40.20
2023-11-30T19:23:47.786Z,34.42
2023-11-30T19:26:14.339Z,34.47
2023-11-30T19:28:41.000Z,44.28
2023-11-30T19:31:07.737Z,43.17
2023-11-30T19:33:34.584Z,35.05
2023-11-30T19:36:01.603Z,40.70
2023-11-30T19:38:28.600Z,36.20
2023-11-30T19:41:00.414Z,35.45
2023-11-30T19:43:27.167Z,44.67
2023-11-30T19:45:55.337Z,45.05
2023-11-30T19:48:22.503Z,35.72
2023-11-30T19:50:48.957Z,40.42
2023-11-30T19:53:15.446Z,46.10
2023-11-30T19:55:42.240Z,44.92
2023-11-30T19:58:09.015Z,49.08
2023-11-30T20:00:35.580Z,40.30
2023-11-30T20:03:02.119Z,42.20
2023-11-30T20:05:28.569Z,49.85
2023-11-30T20:07:55.139Z,39.67
2023-11-30T20:10:21.661Z,34.75
2023-11-30T20:12:53.329Z,40.92
2023-11-30T20:15:22.807Z,39.55
2023-11-30T20:17:49.563Z,40.00
2023-11-30T20:20:16.477Z,36.78
2023-11-30T20:22:43.087Z,60.67
2023-11-30T20:25:09.836Z,41.38
2023-11-30T20:27:36.277Z,36.47
2023-11-30T20:30:03.110Z,40.65
2023-11-30T20:32:29.976Z,40.75
2023-11-30T20:34:56.425Z,34.65
2023-11-30T20:37:23.078Z,37.58
2023-11-30T20:39:49.519Z,41.90
2023-11-30T20:42:15.998Z,39.83
2023-11-30T20:44:42.466Z,40.28
2023-11-30T20:47:08.948Z,40.65
2023-11-30T20:49:35.371Z,43.03
2023-11-30T20:52:02.004Z,48.60
2023-11-30T20:54:28.461Z,45.58
2023-11-30T20:56:54.983Z,49.85
2023-11-30T20:59:21.454Z,66.78
2023-11-30T21:01:48.016Z,55.50
2023-11-30T21:04:14.620Z,50.28
2023-11-30T21:06:41.129Z,48.15
2023-11-30T21:09:08.173Z,57.38
2023-11-30T21:11:37.637Z,43.50
2023-11-30T21:14:04.197Z,47.58
2023-11-30T21:16:30.659Z,42.97
2023-11-30T21:18:57.101Z,43.97
2023-11-30T21:21:23.673Z,40.85
2023-11-30T21:23:50.702Z,46.50
2023-11-30T21:26:17.286Z,60.30
2023-11-30T21:28:43.725Z,47.53
2023-11-30T21:31:10.455Z,48.15
2023-11-30T21:33:37.334Z,46.47
2023-11-30T21:36:03.975Z,54.58
2023-11-30T21:38:30.464Z,44.85
2023-11-30T21:40:57.283Z,44.42
2023-11-30T21:43:24.124Z,49.80
2023-11-30T21:45:50.992Z,48.28
2023-11-30T21:48:17.628Z,43.50
2023-11-30T21:50:44.273Z,51.15
2023-11-30T21:53:11.264Z,38.90
2023-11-30T21:55:37.713Z,51.45
2023-11-30T21:58:04.154Z,45.40
2023-11-30T22:00:30.709Z,49.95
2023-11-30T22:02:57.616Z,49.38
2023-11-30T22:05:30.696Z,52.10
2023-11-30T22:08:02.632Z,48.97
2023-11-30T22:10:29.138Z,42.95
2023-11-30T22:12:55.650Z,47.78
2023-11-30T22:15:22.764Z,75.90
2023-11-30T22:17:49.385Z,191.68
2023-11-30T22:20:15.845Z,60.78
2023-11-30T22:22:42.281Z,51.90
2023-11-30T22:25:09.067Z,43.28
2023-11-30T22:27:37.107Z,45.30
2023-11-30T22:30:03.705Z,47.45
2023-11-30T22:32:30.221Z,41.47
2023-11-30T22:34:56.672Z,46.10
2023-11-30T22:37:23.269Z,53.30
2023-11-30T22:39:49.801Z,43.03
2023-11-30T22:42:16.281Z,47.88
2023-11-30T22:44:42.865Z,46.55
2023-11-30T22:47:09.289Z,48.78
2023-11-30T22:49:35.824Z,48.42
2023-11-30T22:52:02.829Z,72.63
2023-11-30T22:54:29.469Z,49.85
2023-11-30T22:56:57.054Z,47.15
2023-11-30T22:59:25.035Z,41.13
2023-11-30T23:01:52.684Z,40.88
2023-11-30T23:04:20.151Z,47.30
2023-11-30T23:06:46.788Z,37.22
2023-11-30T23:09:13.339Z,43.08
2023-11-30T23:11:39.801Z,49.53
2023-11-30T23:14:06.231Z,43.33
2023-11-30T23:16:32.660Z,38.75
2023-11-30T23:18:59.230Z,39.65
2023-11-30T23:21:26.902Z,38.92
2023-11-30T23:23:54.260Z,39.67
2023-11-30T23:26:20.672Z,42.17
2023-11-30T23:28:47.359Z,42.67
2023-11-30T23:31:14.100Z,44.47
2023-11-30T23:33:40.637Z,39.03
2023-11-30T23:36:07.535Z,44.13
2023-11-30T23:38:33.973Z,41.55
2023-11-30T23:41:00.505Z,46.15
2023-11-30T23:43:26.931Z,40.38
2023-11-30T23:45:53.481Z,42.30
2023-11-30T23:48:19.910Z,39.95
2023-11-30T23:50:46.366Z,44.20
2023-11-30T23:53:13.062Z,35.50
2023-11-30T23:55:39.525Z,35.67
2023-11-30T23:58:05.994Z,42.78
